Nearby METAR Reports

 

YBBN - Brisbane Intl Ar, Australia
Distance from station: SE 37km
Updated: 12/12/2019 23:00
Few Clouds
Few Clouds
 Wind from NNE
Wind: NNE 30 km/h
Temperature: 25°C
Dew Point: 22°C
Humidity: 83%
Barometer: 1011 hPa
Clouds: Few Clouds
Visibility: 10 km
Cloud details: Few Clouds 488 m
2019/12/12 13:00 YBBN 121300Z 02016KT 9999 FEW016 25/22 Q1011 FM1500 34008KT 9999 FEW015
YAMB - Amberley, Australia
Distance from station: SSW 50km
Updated: 12/12/2019 23:00
Clear
Clear
 Wind from NE
Wind: NE 13 km/h
Temperature: 25°C
Dew Point: 20°C
Humidity: 74%
Barometer: 1011 hPa
Clouds: Clear
Visibility: 10 km
2019/12/12 13:00 YAMB 121300Z AUTO 05007KT 9999 // NCD 25/20 Q1011
 
YBOK - Oakey (army/Civ), Australia
Distance from station: WSW 112km
Updated: 12/12/2019 23:00
Clear
Clear
 Wind from ENE
Wind: ENE 19 km/h
Temperature: 25°C
Dew Point: 19°C
Humidity: 69%
Barometer: 1012 hPa
Clouds: Clear
Visibility: 10 km
2019/12/12 13:00 YBOK 121300Z AUTO 06010KT 9999 // NCD 25/19 Q1012
YKRY - Kingaroy Arpt, Australia
Distance from station: NW 121km
Updated: 12/12/2019 23:00
Clear
Clear
 Wind from NNE
Wind: NNE 9 km/h
Temperature: 22°C
Dew Point: 16°C
Humidity: 69%
Barometer: 1012 hPa
Clouds: Clear
Visibility: 10 km
2019/12/12 13:00 YKRY 121300Z AUTO 03005KT 9999 // NCD 22/16 Q1012
 
YBCG - Coolangatta Aws, Australia
Distance from station: SSE 127km
Updated: 12/12/2019 23:00
Mostly cloudy
Mostly cloudy
 Wind from N
Wind: N 13 km/h
Temperature: 25°C
Dew Point: 22°C
Humidity: 83%
Barometer: 1011 hPa
Clouds: Mostly cloudy
Visibility: 10 km
Cloud details: Mostly cloudy 1524 m
2019/12/12 13:00 YBCG 121300Z AUTO 36007KT 9999 // BKN050 25/22 Q1011
YLIS - Lismore Arpt, Australia
Distance from station: SSE 187km
Updated: 12/12/2019 23:04
Mostly cloudy
Mostly cloudy
 Wind from SSE
Wind: SSE 13 km/h
Temperature: 24°C
Dew Point: 21°C
Humidity: 83%
Barometer: 1012 hPa
Clouds: Mostly cloudy
Visibility: 10 km
Cloud details: Partly cloudy 518 m
Mostly cloudy 1097 m
Mostly cloudy 1494 m
2019/12/12 13:04 YLIS 121304Z AUTO 16007KT 9999 // SCT017 BKN036 BKN049 24/21 Q1012
 
YCAS - Casino Airport, Australia
Distance from station: S 189km
Updated: 12/12/2019 23:00

 Wind from SW
Wind: SW 13 km/h
Temperature: 23°C
Dew Point: 21°C
Humidity: 89%
Barometer: 1012 hPa
2019/12/12 13:00 YCAS 121300Z AUTO 23007KT //// // ////// 23/21 Q1012
YBNA - Ballina Byron G., Australia
Distance from station: SSE 196km
Updated: 12/12/2019 23:02
Mostly cloudy
Mostly cloudy
 Wind from NE
Wind: NE 9 km/h
Temperature: 24°C
Dew Point: 23°C
Humidity: 94%
Barometer: 1012 hPa
Clouds: Mostly cloudy
Visibility: 9 km
Cloud details: Partly cloudy 427 m
Partly cloudy 701 m
Mostly cloudy 1006 m
2019/12/12 13:02 YBNA 121302Z AUTO 05005KT 9000 // SCT014 SCT023 BKN033 24/23 Q1012
 
YBUD - Bundaberg, Australia
Distance from station: NNW 260km
Updated: 12/12/2019 23:00
Partly cloudy
Partly cloudy
 Wind from N
Wind: N 17 km/h
Temperature: 26°C
Dew Point: 20°C
Humidity: 70%
Barometer: 1011 hPa
Clouds: Partly cloudy
Visibility: 10 km
Cloud details: Partly cloudy 732 m
2019/12/12 13:00 YBUD 121300Z AUTO 35009KT 9999 // SCT024 26/20 Q1011
YGFN - Grafton Arpt, Australia
Distance from station: S 287km
Updated: 12/12/2019 23:00
Overcast
Overcast
 Wind from S
Wind: S 19 km/h
Temperature: 22°C
Dew Point: 19°C
Humidity: 83%
Barometer: 1012 hPa
Clouds: Overcast
Visibility: 10 km
Cloud details: Overcast 1646 m
2019/12/12 13:00 YGFN 121300Z AUTO 19010KT 9999 // OVC054 22/19 Q1012